createdAt,value
2015-11-22T20:15:28.200Z,15
2015-11-22T20:15:40.653Z,15
2015-11-22T20:15:52.700Z,15
2015-11-22T20:16:04.732Z,15
2015-11-22T20:16:17.030Z,15
2015-11-22T20:16:29.640Z,15
2015-11-22T20:16:42.405Z,9
2015-11-22T20:16:54.546Z,18
2015-11-22T20:17:06.624Z,18
2015-11-22T20:17:18.830Z,18
2015-11-22T20:17:31.377Z,18
2015-11-22T20:17:44.033Z,18
2015-11-22T20:17:57.174Z,18
2015-11-22T20:18:10.221Z,18
2015-11-22T20:18:22.255Z,18
2015-11-22T20:18:34.318Z,18
2015-11-22T20:18:46.365Z,18
2015-11-22T20:18:58.615Z,18
2015-11-22T20:19:11.443Z,18
2015-11-22T20:19:27.663Z,18
2015-11-22T20:19:40.085Z,18
2015-11-22T20:19:55.148Z,18
2015-11-22T20:20:07.226Z,18
2015-11-22T20:20:19.713Z,18
2015-11-22T20:20:32.088Z,18
2015-11-22T20:20:44.338Z,18
2015-11-22T20:20:56.932Z,18
2015-11-22T20:21:09.041Z,18
2015-11-22T20:21:20.951Z,18
2015-11-22T20:21:33.123Z,18
2015-11-22T20:21:45.044Z,18
2015-11-22T20:22:01.482Z,9
2015-11-22T20:22:14.001Z,9
2015-11-22T20:22:26.626Z,9
2015-11-22T20:22:44.563Z,20
2015-11-22T20:22:56.547Z,3
2015-11-22T20:23:10.126Z,10
2015-11-22T20:23:22.128Z,9
2015-11-22T20:23:34.096Z,9
2015-11-22T20:23:46.159Z,18
2015-11-22T20:23:58.299Z,9
2015-11-22T20:24:10.440Z,9
2015-11-22T20:24:22.833Z,9
2015-11-22T20:24:35.442Z,9
2015-11-22T20:24:47.442Z,9
2015-11-22T20:25:00.520Z,9
2015-11-22T20:25:13.145Z,9
2015-11-22T20:25:25.178Z,18
2015-11-22T20:25:37.163Z,9
2015-11-22T20:25:49.741Z,18
2015-11-22T20:26:02.241Z,18
2015-11-22T20:26:15.058Z,18
2015-11-22T20:26:27.636Z,18
2015-11-22T20:26:39.777Z,18
2015-11-22T20:26:52.230Z,18
2015-11-22T20:27:05.464Z,18
2015-11-22T20:27:17.516Z,18
2015-11-22T20:27:29.594Z,18
2015-11-22T20:27:41.625Z,18
2015-11-22T20:27:53.735Z,18
2015-11-22T20:28:06.328Z,18
2015-11-22T20:28:18.988Z,18
2015-11-22T20:28:31.051Z,18
2015-11-22T20:28:43.144Z,18
2015-11-22T20:28:55.269Z,18
2015-11-22T20:29:07.301Z,18
2015-11-22T20:29:19.916Z,18
2015-11-22T20:29:32.384Z,18
2015-11-22T20:29:44.463Z,18
2015-11-22T20:29:56.556Z,18
2015-11-22T20:30:08.619Z,18
2015-11-22T20:30:21.123Z,8
2015-11-22T20:30:33.655Z,8
2015-11-22T20:30:45.702Z,18
2015-11-22T20:30:57.795Z,18
2015-11-22T20:31:10.389Z,9
2015-11-22T20:31:23.434Z,9
2015-11-22T20:31:35.512Z,9
2015-11-22T20:31:50.481Z,9
2015-11-22T20:32:02.825Z,18
2015-11-22T20:32:14.887Z,9
2015-11-22T20:32:27.307Z,9
2015-11-22T20:32:39.510Z,9
2015-11-22T20:32:52.666Z,9
2015-11-22T20:33:05.323Z,9
2015-11-22T20:33:17.351Z,9
2015-11-22T20:33:30.226Z,9
2015-11-22T20:33:42.679Z,9
2015-11-22T20:33:55.538Z,9
2015-11-22T20:34:08.054Z,9
2015-11-22T20:34:20.239Z,9
2015-11-22T20:34:32.896Z,18
2015-11-22T20:34:45.068Z,9
2015-11-22T20:34:57.427Z,9
2015-11-22T20:35:09.443Z,9
2015-11-22T20:35:22.191Z,9
2015-11-22T20:35:36.034Z,9
2015-11-22T20:35:48.394Z,9
2015-11-22T20:36:04.675Z,9
2015-11-22T20:36:17.410Z,9
2015-11-22T20:36:29.551Z,9
2015-11-22T20:36:41.551Z,9
2015-11-22T20:36:53.895Z,9
2015-11-22T20:37:06.613Z,9
2015-11-22T20:37:22.974Z,9
2015-11-22T20:37:39.646Z,9
2015-11-22T20:37:51.818Z,9
2015-11-22T20:38:04.427Z,9
2015-11-22T20:38:16.708Z,9
2015-11-22T20:38:29.303Z,9
2015-11-22T20:38:41.865Z,9
2015-11-22T20:38:56.881Z,9
2015-11-22T20:39:09.069Z,9
2015-11-22T20:39:21.553Z,9
2015-11-22T20:39:33.600Z,9
2015-11-22T20:39:45.615Z,9
2015-11-22T20:39:57.756Z,9
2015-11-22T20:40:09.881Z,9
2015-11-22T20:40:23.351Z,9
2015-11-22T20:40:36.070Z,9
2015-11-22T20:40:48.304Z,9
2015-11-22T20:41:01.648Z,9
2015-11-22T20:41:14.804Z,9
2015-11-22T20:41:27.337Z,9
2015-11-22T20:41:39.368Z,9
2015-11-22T20:41:51.493Z,9
2015-11-22T20:42:03.525Z,9
2015-11-22T20:42:15.478Z,9
2015-11-22T20:42:27.980Z,9
2015-11-22T20:42:40.652Z,18
2015-11-22T20:42:53.152Z,18
2015-11-22T20:43:05.667Z,9
2015-11-22T20:43:17.699Z,18
2015-11-22T20:43:30.732Z,18
2015-11-22T20:43:45.107Z,18
2015-11-22T20:43:57.372Z,18
2015-11-22T20:44:10.185Z,18
2015-11-22T20:44:22.373Z,18
2015-11-22T20:44:34.623Z,9
2015-11-22T20:44:46.686Z,9
2015-11-22T20:44:58.686Z,3
2015-11-22T20:45:11.186Z,18
2015-11-22T20:45:23.673Z,18
2015-11-22T20:45:37.001Z,8
2015-11-22T20:45:50.033Z,9
2015-11-22T20:46:02.064Z,10
2015-11-22T20:46:15.142Z,10
2015-11-22T20:46:27.550Z,9
2015-11-22T20:46:40.613Z,9
2015-11-22T20:46:58.113Z,9
2015-11-22T20:47:11.175Z,9
2015-11-22T20:47:23.617Z,15
2015-11-22T20:47:35.711Z,15
2015-11-22T20:47:47.664Z,15
2015-11-22T20:47:59.851Z,15
2015-11-22T21:30:07.621Z,4
2015-11-22T21:30:20.731Z,4
2015-11-22T21:30:34.965Z,4
2015-11-22T21:30:48.043Z,4
2015-11-22T21:31:01.937Z,4
2015-11-22T21:31:18.421Z,4
2015-11-22T21:31:32.124Z,4
2015-11-22T21:31:45.296Z,5
2015-11-22T21:31:57.908Z,4
2015-11-22T21:32:10.705Z,4
2015-11-22T21:32:24.876Z,4
2015-11-22T21:32:38.314Z,4
2015-11-22T21:32:51.783Z,4
2015-11-22T21:33:05.708Z,4
2015-11-22T21:33:19.083Z,4
2015-11-22T21:33:33.254Z,4
2015-11-22T21:33:46.145Z,4
2015-11-22T21:34:00.069Z,4
2015-11-22T21:34:14.303Z,4
